sensor_id;sensor_type;location;lat;lon;timestamp;temperature;humidity
39525;DHT22;25203;50.754;6.978;2023-05-10T00:00:18;12.20;99.90
39525;DHT22;25203;50.754;6.978;2023-05-10T00:02:20;12.20;99.90
39525;DHT22;25203;50.754;6.978;2023-05-10T00:04:21;12.20;99.90
39525;DHT22;25203;50.754;6.978;2023-05-10T00:06:21;12.20;99.90
39525;DHT22;25203;50.754;6.978;2023-05-10T00:08:22;12.20;99.90
39525;DHT22;25203;50.754;6.978;2023-05-10T00:10:23;12.20;99.90
39525;DHT22;25203;50.754;6.978;2023-05-10T00:12:23;12.20;99.90
39525;DHT22;25203;50.754;6.978;2023-05-10T00:14:24;12.20;99.90
39525;DHT22;25203;50.754;6.978;2023-05-10T00:16:25;12.20;99.90
39525;DHT22;25203;50.754;6.978;2023-05-10T00:18:25;12.20;99.90
39525;DHT22;25203;50.754;6.978;2023-05-10T00:20:26;12.20;99.90
39525;DHT22;25203;50.754;6.978;2023-05-10T00:22:26;12.20;99.90
39525;DHT22;25203;50.754;6.978;2023-05-10T00:24:27;12.20;99.90
39525;DHT22;25203;50.754;6.978;2023-05-10T00:26:28;12.30;99.90
39525;DHT22;25203;50.754;6.978;2023-05-10T00:28:28;12.20;99.90
39525;DHT22;25203;50.754;6.978;2023-05-10T00:30:29;12.20;99.90
39525;DHT22;25203;50.754;6.978;2023-05-10T00:32:30;12.30;99.90
39525;DHT22;25203;50.754;6.978;2023-05-10T00:34:31;12.20;99.90
39525;DHT22;25203;50.754;6.978;2023-05-10T00:36:31;12.20;99.90
39525;DHT22;25203;50.754;6.978;2023-05-10T00:38:32;12.20;99.90
39525;DHT22;25203;50.754;6.978;2023-05-10T00:40:32;12.30;99.90
39525;DHT22;25203;50.754;6.978;2023-05-10T00:42:33;12.30;99.90
39525;DHT22;25203;50.754;6.978;2023-05-10T00:44:34;12.30;99.90
39525;DHT22;25203;50.754;6.978;2023-05-10T00:46:35;12.30;99.90
39525;DHT22;25203;50.754;6.978;2023-05-10T00:48:36;12.30;99.90
39525;DHT22;25203;50.754;6.978;2023-05-10T00:50:37;12.30;99.90
39525;DHT22;25203;50.754;6.978;2023-05-10T00:52:39;12.30;99.90
39525;DHT22;25203;50.754;6.978;2023-05-10T00:54:39;12.30;99.90
39525;DHT22;25203;50.754;6.978;2023-05-10T00:56:40;12.30;99.90
39525;DHT22;25203;50.754;6.978;2023-05-10T00:58:41;12.30;99.90
39525;DHT22;25203;50.754;6.978;2023-05-10T01:00:42;12.30;99.90
39525;DHT22;25203;50.754;6.978;2023-05-10T01:02:47;12.30;99.90
39525;DHT22;25203;50.754;6.978;2023-05-10T01:04:48;12.30;99.90
39525;DHT22;25203;50.754;6.978;2023-05-10T01:06:49;12.40;99.90
39525;DHT22;25203;50.754;6.978;2023-05-10T01:08:50;12.30;99.90
39525;DHT22;25203;50.754;6.978;2023-05-10T01:10:51;12.40;99.90
39525;DHT22;25203;50.754;6.978;2023-05-10T01:12:52;12.30;99.90
39525;DHT22;25203;50.754;6.978;2023-05-10T01:14:54;12.30;99.90
39525;DHT22;25203;50.754;6.978;2023-05-10T01:16:55;12.30;99.90
39525;DHT22;25203;50.754;6.978;2023-05-10T01:18:56;12.30;99.90
39525;DHT22;25203;50.754;6.978;2023-05-10T01:21:23;12.30;99.90
39525;DHT22;25203;50.754;6.978;2023-05-10T01:26:16;12.30;99.90
39525;DHT22;25203;50.754;6.978;2023-05-10T01:31:08;12.30;99.90
39525;DHT22;25203;50.754;6.978;2023-05-10T01:33:26;12.30;99.90
39525;DHT22;25203;50.754;6.978;2023-05-10T01:35:47;12.30;99.90
39525;DHT22;25203;50.754;6.978;2023-05-10T01:38:04;12.30;99.90
39525;DHT22;25203;50.754;6.978;2023-05-10T01:42:25;12.30;99.90
39525;DHT22;25203;50.754;6.978;2023-05-10T01:45:07;12.20;99.90
39525;DHT22;25203;50.754;6.978;2023-05-10T01:47:10;12.20;99.90
39525;DHT22;25203;50.754;6.978;2023-05-10T01:49:24;12.20;99.90
39525;DHT22;25203;50.754;6.978;2023-05-10T01:51:29;12.20;99.90
39525;DHT22;25203;50.754;6.978;2023-05-10T01:53:32;12.20;99.90
39525;DHT22;25203;50.754;6.978;2023-05-10T01:55:39;12.20;99.90
39525;DHT22;25203;50.754;6.978;2023-05-10T01:57:44;12.20;99.90
39525;DHT22;25203;50.754;6.978;2023-05-10T01:59:49;12.20;99.90
39525;DHT22;25203;50.754;6.978;2023-05-10T02:01:51;12.20;99.90
39525;DHT22;25203;50.754;6.978;2023-05-10T02:03:53;12.20;99.90
39525;DHT22;25203;50.754;6.978;2023-05-10T02:05:56;12.20;99.90
39525;DHT22;25203;50.754;6.978;2023-05-10T02:07:58;12.20;99.90
39525;DHT22;25203;50.754;6.978;2023-05-10T02:10:05;12.20;99.90
39525;DHT22;25203;50.754;6.978;2023-05-10T02:12:06;12.20;99.90
39525;DHT22;25203;50.754;6.978;2023-05-10T02:14:09;12.10;99.90
39525;DHT22;25203;50.754;6.978;2023-05-10T02:16:12;12.10;99.90
39525;DHT22;25203;50.754;6.978;2023-05-10T02:18:13;12.10;99.90
39525;DHT22;25203;50.754;6.978;2023-05-10T02:20:16;12.20;99.90
39525;DHT22;25203;50.754;6.978;2023-05-10T02:22:19;12.20;99.90
39525;DHT22;25203;50.754;6.978;2023-05-10T02:24:21;12.20;99.90
39525;DHT22;25203;50.754;6.978;2023-05-10T02:26:24;12.20;99.90
39525;DHT22;25203;50.754;6.978;2023-05-10T02:28:26;12.20;99.90
39525;DHT22;25203;50.754;6.978;2023-05-10T02:30:28;12.20;99.90
39525;DHT22;25203;50.754;6.978;2023-05-10T02:32:30;12.30;99.90
39525;DHT22;25203;50.754;6.978;2023-05-10T02:34:31;12.30;99.90
39525;DHT22;25203;50.754;6.978;2023-05-10T02:36:33;12.30;99.90
39525;DHT22;25203;50.754;6.978;2023-05-10T02:38:34;12.30;99.90
39525;DHT22;25203;50.754;6.978;2023-05-10T02:40:36;12.30;99.90
39525;DHT22;25203;50.754;6.978;2023-05-10T02:42:38;12.30;99.90
39525;DHT22;25203;50.754;6.978;2023-05-10T02:44:43;12.30;99.90
39525;DHT22;25203;50.754;6.978;2023-05-10T02:46:45;12.30;99.90
39525;DHT22;25203;50.754;6.978;2023-05-10T02:48:47;12.30;99.90
39525;DHT22;25203;50.754;6.978;2023-05-10T02:50:48;12.30;99.90
39525;DHT22;25203;50.754;6.978;2023-05-10T02:52:55;12.30;99.90
39525;DHT22;25203;50.754;6.978;2023-05-10T02:55:00;12.30;99.90
39525;DHT22;25203;50.754;6.978;2023-05-10T02:57:04;12.20;99.90
39525;DHT22;25203;50.754;6.978;2023-05-10T02:59:06;12.30;99.90
39525;DHT22;25203;50.754;6.978;2023-05-10T03:01:06;12.30;99.90
39525;DHT22;25203;50.754;6.978;2023-05-10T03:03:08;12.30;99.90
39525;DHT22;25203;50.754;6.978;2023-05-10T03:05:08;12.30;99.90
39525;DHT22;25203;50.754;6.978;2023-05-10T03:07:09;12.30;99.90
39525;DHT22;25203;50.754;6.978;2023-05-10T03:09:11;12.30;99.90
39525;DHT22;25203;50.754;6.978;2023-05-10T03:12:27;12.30;99.90
39525;DHT22;25203;50.754;6.978;2023-05-10T03:16:24;12.30;99.90
39525;DHT22;25203;50.754;6.978;2023-05-10T03:20:47;12.40;99.90
39525;DHT22;25203;50.754;6.978;2023-05-10T03:22:52;12.30;99.90
39525;DHT22;25203;50.754;6.978;2023-05-10T03:24:55;12.40;99.90
39525;DHT22;25203;50.754;6.978;2023-05-10T03:26:59;12.40;99.90
39525;DHT22;25203;50.754;6.978;2023-05-10T03:29:04;12.40;99.90
39525;DHT22;25203;50.754;6.978;2023-05-10T03:31:06;12.40;99.90
39525;DHT22;25203;50.754;6.978;2023-05-10T03:33:07;12.40;99.90
39525;DHT22;25203;50.754;6.978;2023-05-10T03:35:08;12.30;99.90
39525;DHT22;25203;50.754;6.978;2023-05-10T03:37:09;12.40;99.90
39525;DHT22;25203;50.754;6.978;2023-05-10T03:39:10;12.40;99.90
39525;DHT22;25203;50.754;6.978;2023-05-10T03:41:11;12.40;99.90
39525;DHT22;25203;50.754;6.978;2023-05-10T03:43:11;12.40;99.90
39525;DHT22;25203;50.754;6.978;2023-05-10T03:45:12;12.40;99.90
39525;DHT22;25203;50.754;6.978;2023-05-10T03:47:12;12.40;99.90
39525;DHT22;25203;50.754;6.978;2023-05-10T03:49:13;12.40;99.90
39525;DHT22;25203;50.754;6.978;2023-05-10T03:51:14;12.40;99.90
39525;DHT22;25203;50.754;6.978;2023-05-10T03:53:15;12.40;99.90
39525;DHT22;25203;50.754;6.978;2023-05-10T03:55:16;12.40;99.90
39525;DHT22;25203;50.754;6.978;2023-05-10T03:57:16;12.40;99.90
39525;DHT22;25203;50.754;6.978;2023-05-10T03:59:17;12.50;99.90
39525;DHT22;25203;50.754;6.978;2023-05-10T04:01:18;12.50;99.90
39525;DHT22;25203;50.754;6.978;2023-05-10T04:03:18;12.50;99.90
39525;DHT22;25203;50.754;6.978;2023-05-10T04:05:20;12.50;99.90
39525;DHT22;25203;50.754;6.978;2023-05-10T04:07:20;12.50;99.90
39525;DHT22;25203;50.754;6.978;2023-05-10T04:09:21;12.50;99.90
39525;DHT22;25203;50.754;6.978;2023-05-10T04:11:22;12.50;99.90
39525;DHT22;25203;50.754;6.978;2023-05-10T04:13:22;12.50;99.90
39525;DHT22;25203;50.754;6.978;2023-05-10T04:15:23;12.50;99.90
39525;DHT22;25203;50.754;6.978;2023-05-10T04:17:24;12.50;99.90
39525;DHT22;25203;50.754;6.978;2023-05-10T04:19:29;12.50;99.90
39525;DHT22;25203;50.754;6.978;2023-05-10T04:21:30;12.50;99.90
39525;DHT22;25203;50.754;6.978;2023-05-10T04:23:31;12.50;99.90
39525;DHT22;25203;50.754;6.978;2023-05-10T04:25:34;12.50;99.90
39525;DHT22;25203;50.754;6.978;2023-05-10T04:27:35;12.50;99.90
39525;DHT22;25203;50.754;6.978;2023-05-10T04:29:36;12.50;99.90
39525;DHT22;25203;50.754;6.978;2023-05-10T04:31:37;12.50;99.90
39525;DHT22;25203;50.754;6.978;2023-05-10T04:33:38;12.50;99.90
39525;DHT22;25203;50.754;6.978;2023-05-10T04:35:38;12.50;99.90
39525;DHT22;25203;50.754;6.978;2023-05-10T04:37:40;12.50;99.90
39525;DHT22;25203;50.754;6.978;2023-05-10T04:39:40;12.50;99.90
39525;DHT22;25203;50.754;6.978;2023-05-10T04:41:41;12.50;99.90
39525;DHT22;25203;50.754;6.978;2023-05-10T04:43:41;12.50;99.90
39525;DHT22;25203;50.754;6.978;2023-05-10T04:45:42;12.50;99.90
39525;DHT22;25203;50.754;6.978;2023-05-10T04:47:43;12.50;99.90
39525;DHT22;25203;50.754;6.978;2023-05-10T04:49:43;12.50;99.90
39525;DHT22;25203;50.754;6.978;2023-05-10T04:51:44;12.60;99.90
39525;DHT22;25203;50.754;6.978;2023-05-10T04:53:44;12.60;99.90
39525;DHT22;25203;50.754;6.978;2023-05-10T04:55:45;12.60;99.90
39525;DHT22;25203;50.754;6.978;2023-05-10T04:57:47;12.60;99.90
39525;DHT22;25203;50.754;6.978;2023-05-10T04:59:47;12.60;99.90
39525;DHT22;25203;50.754;6.978;2023-05-10T05:01:48;12.60;99.90
39525;DHT22;25203;50.754;6.978;2023-05-10T05:03:48;12.60;99.90
39525;DHT22;25203;50.754;6.978;2023-05-10T05:05:49;12.60;99.90
39525;DHT22;25203;50.754;6.978;2023-05-10T05:07:50;12.60;99.90
39525;DHT22;25203;50.754;6.978;2023-05-10T05:09:51;12.70;99.90
39525;DHT22;25203;50.754;6.978;2023-05-10T05:11:51;12.70;99.90
39525;DHT22;25203;50.754;6.978;2023-05-10T05:13:52;12.70;99.90
39525;DHT22;25203;50.754;6.978;2023-05-10T05:15:52;12.70;99.90
39525;DHT22;25203;50.754;6.978;2023-05-10T05:17:53;12.80;99.90
39525;DHT22;25203;50.754;6.978;2023-05-10T05:19:54;12.80;99.90
39525;DHT22;25203;50.754;6.978;2023-05-10T05:21:54;12.80;99.90
39525;DHT22;25203;50.754;6.978;2023-05-10T05:23:55;12.80;99.90
39525;DHT22;25203;50.754;6.978;2023-05-10T05:25:56;12.90;99.90
39525;DHT22;25203;50.754;6.978;2023-05-10T05:27:56;12.90;99.90
39525;DHT22;25203;50.754;6.978;2023-05-10T05:29:57;12.90;99.90
39525;DHT22;25203;50.754;6.978;2023-05-10T05:31:58;13.00;99.90
39525;DHT22;25203;50.754;6.978;2023-05-10T05:33:59;13.00;99.90
39525;DHT22;25203;50.754;6.978;2023-05-10T05:36:04;13.00;99.90
39525;DHT22;25203;50.754;6.978;2023-05-10T05:38:05;13.00;99.90
39525;DHT22;25203;50.754;6.978;2023-05-10T05:40:06;13.10;99.90
39525;DHT22;25203;50.754;6.978;2023-05-10T05:42:08;13.10;99.90
39525;DHT22;25203;50.754;6.978;2023-05-10T05:44:08;13.10;99.90
39525;DHT22;25203;50.754;6.978;2023-05-10T05:46:09;13.20;99.90
39525;DHT22;25203;50.754;6.978;2023-05-10T05:48:10;13.30;99.90
39525;DHT22;25203;50.754;6.978;2023-05-10T05:50:10;13.30;99.90
39525;DHT22;25203;50.754;6.978;2023-05-10T05:52:11;13.30;99.90
39525;DHT22;25203;50.754;6.978;2023-05-10T05:54:12;13.40;99.90
39525;DHT22;25203;50.754;6.978;2023-05-10T05:56:12;13.40;99.90
39525;DHT22;25203;50.754;6.978;2023-05-10T05:58:13;13.40;99.90
39525;DHT22;25203;50.754;6.978;2023-05-10T06:00:14;13.40;99.90
39525;DHT22;25203;50.754;6.978;2023-05-10T06:02:14;13.30;99.90
39525;DHT22;25203;50.754;6.978;2023-05-10T06:04:15;13.30;99.90
39525;DHT22;25203;50.754;6.978;2023-05-10T06:06:16;13.30;99.90
39525;DHT22;25203;50.754;6.978;2023-05-10T06:08:16;13.30;99.90
39525;DHT22;25203;50.754;6.978;2023-05-10T06:10:17;13.30;99.90
39525;DHT22;25203;50.754;6.978;2023-05-10T06:12:18;13.30;99.90
39525;DHT22;25203;50.754;6.978;2023-05-10T06:14:20;13.40;99.90
39525;DHT22;25203;50.754;6.978;2023-05-10T06:16:21;13.40;99.90
39525;DHT22;25203;50.754;6.978;2023-05-10T06:18:21;13.40;99.90
39525;DHT22;25203;50.754;6.978;2023-05-10T06:20:22;13.40;99.90
39525;DHT22;25203;50.754;6.978;2023-05-10T06:22:22;13.40;99.90
39525;DHT22;25203;50.754;6.978;2023-05-10T06:24:23;13.40;99.90
39525;DHT22;25203;50.754;6.978;2023-05-10T06:26:24;13.40;99.90
39525;DHT22;25203;50.754;6.978;2023-05-10T06:28:25;13.40;99.90
39525;DHT22;25203;50.754;6.978;2023-05-10T06:30:25;13.40;99.90
39525;DHT22;25203;50.754;6.978;2023-05-10T06:32:28;13.30;99.90
39525;DHT22;25203;50.754;6.978;2023-05-10T06:34:29;13.30;99.90
39525;DHT22;25203;50.754;6.978;2023-05-10T06:36:30;13.30;99.90
39525;DHT22;25203;50.754;6.978;2023-05-10T06:38:31;13.30;99.90
39525;DHT22;25203;50.754;6.978;2023-05-10T06:40:31;13.30;99.90
39525;DHT22;25203;50.754;6.978;2023-05-10T06:42:33;13.30;99.90
39525;DHT22;25203;50.754;6.978;2023-05-10T06:44:33;13.30;99.90
39525;DHT22;25203;50.754;6.978;2023-05-10T06:46:34;13.30;99.90
39525;DHT22;25203;50.754;6.978;2023-05-10T06:48:35;13.30;99.90
39525;DHT22;25203;50.754;6.978;2023-05-10T06:50:36;13.30;99.90
39525;DHT22;25203;50.754;6.978;2023-05-10T06:52:37;13.30;99.90
39525;DHT22;25203;50.754;6.978;2023-05-10T06:54:37;13.30;99.90
39525;DHT22;25203;50.754;6.978;2023-05-10T06:56:38;13.30;99.90
39525;DHT22;25203;50.754;6.978;2023-05-10T06:58:39;13.40;99.90
39525;DHT22;25203;50.754;6.978;2023-05-10T07:00:40;13.40;99.90
39525;DHT22;25203;50.754;6.978;2023-05-10T07:02:43;13.40;99.90
39525;DHT22;25203;50.754;6.978;2023-05-10T07:04:43;13.50;99.90
39525;DHT22;25203;50.754;6.978;2023-05-10T07:06:44;13.50;99.90
39525;DHT22;25203;50.754;6.978;2023-05-10T07:08:46;13.50;99.90
39525;DHT22;25203;50.754;6.978;2023-05-10T07:10:47;13.50;99.90
39525;DHT22;25203;50.754;6.978;2023-05-10T07:12:47;13.50;99.90
39525;DHT22;25203;50.754;6.978;2023-05-10T07:14:48;13.50;99.90
39525;DHT22;25203;50.754;6.978;2023-05-10T07:16:48;13.50;99.90
39525;DHT22;25203;50.754;6.978;2023-05-10T07:18:49;13.60;99.90
39525;DHT22;25203;50.754;6.978;2023-05-10T07:20:51;13.60;99.90
39525;DHT22;25203;50.754;6.978;2023-05-10T07:22:51;13.60;99.90
39525;DHT22;25203;50.754;6.978;2023-05-10T07:24:52;13.60;99.90
39525;DHT22;25203;50.754;6.978;2023-05-10T07:26:52;13.70;99.90
39525;DHT22;25203;50.754;6.978;2023-05-10T07:28:53;13.70;99.90
39525;DHT22;25203;50.754;6.978;2023-05-10T07:30:54;13.80;99.90
39525;DHT22;25203;50.754;6.978;2023-05-10T07:32:54;13.90;99.90
39525;DHT22;25203;50.754;6.978;2023-05-10T07:34:55;14.00;99.90
39525;DHT22;25203;50.754;6.978;2023-05-10T07:36:57;14.00;99.90
39525;DHT22;25203;50.754;6.978;2023-05-10T07:38:58;14.00;99.90
39525;DHT22;25203;50.754;6.978;2023-05-10T07:40:58;14.10;99.90
39525;DHT22;25203;50.754;6.978;2023-05-10T07:42:59;14.20;99.90
39525;DHT22;25203;50.754;6.978;2023-05-10T07:45:01;14.40;99.90
39525;DHT22;25203;50.754;6.978;2023-05-10T07:47:02;14.50;99.90
39525;DHT22;25203;50.754;6.978;2023-05-10T07:49:03;14.50;99.90
39525;DHT22;25203;50.754;6.978;2023-05-10T07:51:04;14.50;99.90
39525;DHT22;25203;50.754;6.978;2023-05-10T07:53:06;14.40;99.90
39525;DHT22;25203;50.754;6.978;2023-05-10T07:55:08;14.30;99.90
39525;DHT22;25203;50.754;6.978;2023-05-10T07:57:09;14.10;99.90
39525;DHT22;25203;50.754;6.978;2023-05-10T07:59:09;13.90;99.90
39525;DHT22;25203;50.754;6.978;2023-05-10T08:01:10;13.80;99.90
39525;DHT22;25203;50.754;6.978;2023-05-10T08:03:11;13.80;99.90
39525;DHT22;25203;50.754;6.978;2023-05-10T08:05:12;13.70;99.90
39525;DHT22;25203;50.754;6.978;2023-05-10T08:07:12;13.80;99.90
39525;DHT22;25203;50.754;6.978;2023-05-10T08:09:13;13.80;99.90
39525;DHT22;25203;50.754;6.978;2023-05-10T08:11:13;13.90;99.90
39525;DHT22;25203;50.754;6.978;2023-05-10T08:13:14;13.90;99.90
39525;DHT22;25203;50.754;6.978;2023-05-10T08:15:14;14.00;99.90
39525;DHT22;25203;50.754;6.978;2023-05-10T08:17:15;14.10;99.90
39525;DHT22;25203;50.754;6.978;2023-05-10T08:19:16;14.20;99.90
39525;DHT22;25203;50.754;6.978;2023-05-10T08:21:19;14.30;99.90
39525;DHT22;25203;50.754;6.978;2023-05-10T08:23:20;14.40;99.90
39525;DHT22;25203;50.754;6.978;2023-05-10T08:25:21;14.40;99.90
39525;DHT22;25203;50.754;6.978;2023-05-10T08:27:21;14.50;99.90
39525;DHT22;25203;50.754;6.978;2023-05-10T08:29:22;14.40;99.90
39525;DHT22;25203;50.754;6.978;2023-05-10T08:31:22;14.30;99.90
39525;DHT22;25203;50.754;6.978;2023-05-10T08:33:23;14.30;99.90
39525;DHT22;25203;50.754;6.978;2023-05-10T08:35:24;14.30;99.90
39525;DHT22;25203;50.754;6.978;2023-05-10T08:37:25;14.30;99.90
39525;DHT22;25203;50.754;6.978;2023-05-10T08:39:25;14.30;99.90
39525;DHT22;25203;50.754;6.978;2023-05-10T08:41:26;14.20;99.90
39525;DHT22;25203;50.754;6.978;2023-05-10T08:43:27;14.20;99.90
39525;DHT22;25203;50.754;6.978;2023-05-10T08:45:32;14.20;99.90
39525;DHT22;25203;50.754;6.978;2023-05-10T08:47:33;14.10;99.90
39525;DHT22;25203;50.754;6.978;2023-05-10T08:49:37;14.00;99.90
39525;DHT22;25203;50.754;6.978;2023-05-10T08:51:40;13.90;99.90
39525;DHT22;25203;50.754;6.978;2023-05-10T08:53:44;13.70;99.90
39525;DHT22;25203;50.754;6.978;2023-05-10T08:55:45;13.60;99.90
39525;DHT22;25203;50.754;6.978;2023-05-10T08:57:47;13.50;99.90
39525;DHT22;25203;50.754;6.978;2023-05-10T08:59:47;13.40;99.90
39525;DHT22;25203;50.754;6.978;2023-05-10T09:01:50;13.40;99.90
39525;DHT22;25203;50.754;6.978;2023-05-10T09:03:50;13.40;99.90
39525;DHT22;25203;50.754;6.978;2023-05-10T09:05:51;13.50;99.90
39525;DHT22;25203;50.754;6.978;2023-05-10T09:07:52;13.50;99.90
39525;DHT22;25203;50.754;6.978;2023-05-10T09:09:54;13.50;99.90
39525;DHT22;25203;50.754;6.978;2023-05-10T09:11:55;13.50;99.90
39525;DHT22;25203;50.754;6.978;2023-05-10T09:13:55;13.50;99.90
39525;DHT22;25203;50.754;6.978;2023-05-10T09:15:56;13.60;99.90
39525;DHT22;25203;50.754;6.978;2023-05-10T09:17:57;13.60;99.90
39525;DHT22;25203;50.754;6.978;2023-05-10T09:20:00;13.70;99.90
39525;DHT22;25203;50.754;6.978;2023-05-10T09:22:01;13.80;99.90
39525;DHT22;25203;50.754;6.978;2023-05-10T09:24:03;13.80;99.90
39525;DHT22;25203;50.754;6.978;2023-05-10T09:26:05;13.80;99.90
39525;DHT22;25203;50.754;6.978;2023-05-10T09:28:07;13.90;99.90
39525;DHT22;25203;50.754;6.978;2023-05-10T09:30:09;14.00;99.90
39525;DHT22;25203;50.754;6.978;2023-05-10T09:32:09;14.10;99.90
39525;DHT22;25203;50.754;6.978;2023-05-10T09:34:10;14.20;99.90
39525;DHT22;25203;50.754;6.978;2023-05-10T09:36:11;14.20;99.90
39525;DHT22;25203;50.754;6.978;2023-05-10T09:38:12;14.40;99.90
39525;DHT22;25203;50.754;6.978;2023-05-10T09:42:18;14.70;99.90
39525;DHT22;25203;50.754;6.978;2023-05-10T09:44:18;14.70;99.90
39525;DHT22;25203;50.754;6.978;2023-05-10T09:46:19;14.80;99.90
39525;DHT22;25203;50.754;6.978;2023-05-10T09:48:23;14.80;99.90
39525;DHT22;25203;50.754;6.978;2023-05-10T09:50:25;14.70;99.90
39525;DHT22;25203;50.754;6.978;2023-05-10T09:52:26;14.70;99.90
39525;DHT22;25203;50.754;6.978;2023-05-10T09:54:26;15.00;99.90
39525;DHT22;25203;50.754;6.978;2023-05-10T09:56:34;15.20;99.90
39525;DHT22;25203;50.754;6.978;2023-05-10T09:58:39;15.60;99.90
39525;DHT22;25203;50.754;6.978;2023-05-10T10:00:41;15.80;99.90
39525;DHT22;25203;50.754;6.978;2023-05-10T10:02:42;16.10;99.90
39525;DHT22;25203;50.754;6.978;2023-05-10T10:04:42;16.40;99.90
39525;DHT22;25203;50.754;6.978;2023-05-10T10:06:43;16.50;99.90
39525;DHT22;25203;50.754;6.978;2023-05-10T10:08:44;16.70;99.90
39525;DHT22;25203;50.754;6.978;2023-05-10T10:10:44;16.70;99.90
39525;DHT22;25203;50.754;6.978;2023-05-10T10:12:46;16.50;99.90
39525;DHT22;25203;50.754;6.978;2023-05-10T10:14:47;16.30;99.90
39525;DHT22;25203;50.754;6.978;2023-05-10T10:16:50;15.90;99.90
39525;DHT22;25203;50.754;6.978;2023-05-10T10:18:51;15.60;99.90
39525;DHT22;25203;50.754;6.978;2023-05-10T10:20:53;15.10;99.90
39525;DHT22;25203;50.754;6.978;2023-05-10T10:22:54;14.80;99.90
39525;DHT22;25203;50.754;6.978;2023-05-10T10:24:55;14.70;99.90
39525;DHT22;25203;50.754;6.978;2023-05-10T10:26:59;14.70;99.90
39525;DHT22;25203;50.754;6.978;2023-05-10T10:29:20;15.00;99.90
39525;DHT22;25203;50.754;6.978;2023-05-10T10:34:17;17.30;99.90
39525;DHT22;25203;50.754;6.978;2023-05-10T10:36:22;18.00;99.90
39525;DHT22;25203;50.754;6.978;2023-05-10T10:38:23;19.40;99.90
39525;DHT22;25203;50.754;6.978;2023-05-10T10:40:28;21.00;99.90
39525;DHT22;25203;50.754;6.978;2023-05-10T10:42:43;21.20;99.90
39525;DHT22;25203;50.754;6.978;2023-05-10T10:44:45;20.10;99.90
39525;DHT22;25203;50.754;6.978;2023-05-10T10:49:19;17.70;99.90
39525;DHT22;25203;50.754;6.978;2023-05-10T10:51:19;16.70;99.90
39525;DHT22;25203;50.754;6.978;2023-05-10T10:53:20;16.40;99.90
39525;DHT22;25203;50.754;6.978;2023-05-10T10:55:21;16.60;99.90
39525;DHT22;25203;50.754;6.978;2023-05-10T10:57:24;16.90;99.90
39525;DHT22;25203;50.754;6.978;2023-05-10T10:59:27;17.10;99.90
39525;DHT22;25203;50.754;6.978;2023-05-10T11:01:33;17.00;99.90
39525;DHT22;25203;50.754;6.978;2023-05-10T11:03:35;16.90;99.90
39525;DHT22;25203;50.754;6.978;2023-05-10T11:05:41;16.90;99.90
39525;DHT22;25203;50.754;6.978;2023-05-10T11:07:55;16.90;99.90
39525;DHT22;25203;50.754;6.978;2023-05-10T11:10:04;16.70;99.90
39525;DHT22;25203;50.754;6.978;2023-05-10T11:12:08;16.50;99.90
39525;DHT22;25203;50.754;6.978;2023-05-10T11:14:09;16.30;99.90
39525;DHT22;25203;50.754;6.978;2023-05-10T11:18:26;16.70;99.90
39525;DHT22;25203;50.754;6.978;2023-05-10T11:20:28;18.20;99.90
39525;DHT22;25203;50.754;6.978;2023-05-10T11:22:49;19.40;99.90
39525;DHT22;25203;50.754;6.978;2023-05-10T11:24:57;19.90;99.90
39525;DHT22;25203;50.754;6.978;2023-05-10T11:27:01;19.80;99.90
39525;DHT22;25203;50.754;6.978;2023-05-10T11:29:02;20.00;99.90
39525;DHT22;25203;50.754;6.978;2023-05-10T11:31:04;20.90;99.90
39525;DHT22;25203;50.754;6.978;2023-05-10T11:33:07;21.80;98.60
39525;DHT22;25203;50.754;6.978;2023-05-10T11:35:08;22.10;95.40
39525;DHT22;25203;50.754;6.978;2023-05-10T11:37:09;21.50;96.10
39525;DHT22;25203;50.754;6.978;2023-05-10T11:39:10;21.40;96.70
39525;DHT22;25203;50.754;6.978;2023-05-10T11:41:12;21.60;97.80
39525;DHT22;25203;50.754;6.978;2023-05-10T11:43:13;21.90;96.60
39525;DHT22;25203;50.754;6.978;2023-05-10T11:45:13;21.60;96.70
39525;DHT22;25203;50.754;6.978;2023-05-10T11:47:14;20.80;95.70
39525;DHT22;25203;50.754;6.978;2023-05-10T11:49:15;20.00;98.20
39525;DHT22;25203;50.754;6.978;2023-05-10T11:51:19;19.70;99.90
39525;DHT22;25203;50.754;6.978;2023-05-10T11:53:19;19.60;99.90
39525;DHT22;25203;50.754;6.978;2023-05-10T11:55:21;19.70;99.60
39525;DHT22;25203;50.754;6.978;2023-05-10T11:57:26;19.60;99.10
39525;DHT22;25203;50.754;6.978;2023-05-10T11:59:27;19.50;99.90
39525;DHT22;25203;50.754;6.978;2023-05-10T12:01:28;19.30;99.90
39525;DHT22;25203;50.754;6.978;2023-05-10T12:03:29;19.10;99.90
39525;DHT22;25203;50.754;6.978;2023-05-10T12:05:32;19.00;99.90
39525;DHT22;25203;50.754;6.978;2023-05-10T12:07:33;18.90;99.90
39525;DHT22;25203;50.754;6.978;2023-05-10T12:09:33;19.00;99.90
39525;DHT22;25203;50.754;6.978;2023-05-10T12:11:38;19.30;99.90
39525;DHT22;25203;50.754;6.978;2023-05-10T12:13:40;20.30;99.90
39525;DHT22;25203;50.754;6.978;2023-05-10T12:15:42;20.60;99.20
39525;DHT22;25203;50.754;6.978;2023-05-10T12:17:44;20.60;98.30
39525;DHT22;25203;50.754;6.978;2023-05-10T12:19:45;20.00;97.60
39525;DHT22;25203;50.754;6.978;2023-05-10T12:21:45;19.60;98.70
39525;DHT22;25203;50.754;6.978;2023-05-10T12:23:50;19.40;99.90
39525;DHT22;25203;50.754;6.978;2023-05-10T12:25:50;19.10;99.90
39525;DHT22;25203;50.754;6.978;2023-05-10T12:27:55;18.80;99.90
39525;DHT22;25203;50.754;6.978;2023-05-10T12:29:59;18.40;99.90
39525;DHT22;25203;50.754;6.978;2023-05-10T12:32:00;18.10;99.90
39525;DHT22;25203;50.754;6.978;2023-05-10T12:34:00;18.00;99.90
39525;DHT22;25203;50.754;6.978;2023-05-10T12:36:02;17.60;99.90
39525;DHT22;25203;50.754;6.978;2023-05-10T12:38:26;17.20;99.90
39525;DHT22;25203;50.754;6.978;2023-05-10T12:40:29;17.20;99.90
39525;DHT22;25203;50.754;6.978;2023-05-10T12:42:30;17.30;99.90
39525;DHT22;25203;50.754;6.978;2023-05-10T12:44:31;17.50;99.90
39525;DHT22;25203;50.754;6.978;2023-05-10T12:46:32;17.50;99.90
39525;DHT22;25203;50.754;6.978;2023-05-10T12:48:33;17.40;99.90
39525;DHT22;25203;50.754;6.978;2023-05-10T12:50:34;17.30;99.90
39525;DHT22;25203;50.754;6.978;2023-05-10T12:52:34;17.20;99.90
39525;DHT22;25203;50.754;6.978;2023-05-10T12:54:35;17.10;99.90
39525;DHT22;25203;50.754;6.978;2023-05-10T12:56:36;17.10;99.90
39525;DHT22;25203;50.754;6.978;2023-05-10T12:58:38;17.20;99.90
39525;DHT22;25203;50.754;6.978;2023-05-10T13:00:38;17.50;99.90
39525;DHT22;25203;50.754;6.978;2023-05-10T13:02:39;18.00;99.90
39525;DHT22;25203;50.754;6.978;2023-05-10T13:04:40;18.20;99.90
39525;DHT22;25203;50.754;6.978;2023-05-10T13:06:42;18.40;99.90
39525;DHT22;25203;50.754;6.978;2023-05-10T13:08:42;18.70;99.90
39525;DHT22;25203;50.754;6.978;2023-05-10T13:10:43;19.10;99.90
39525;DHT22;25203;50.754;6.978;2023-05-10T13:12:44;19.50;99.90